sensor_id;sensor_type;location;lat;lon;timestamp;P1;durP1;ratioP1;P2;durP2;ratioP2
19521;SDS011;9905;52.126;5.596;2022-09-13T00:01:27;9.30;;;8.50;;
19521;SDS011;9905;52.126;5.596;2022-09-13T00:03:54;10.52;;;9.55;;
19521;SDS011;9905;52.126;5.596;2022-09-13T00:06:21;9.48;;;8.75;;
19521;SDS011;9905;52.126;5.596;2022-09-13T00:08:48;8.90;;;8.23;;
19521;SDS011;9905;52.126;5.596;2022-09-13T00:11:18;9.40;;;8.70;;
19521;SDS011;9905;52.126;5.596;2022-09-13T00:13:46;10.52;;;9.65;;
19521;SDS011;9905;52.126;5.596;2022-09-13T00:16:13;9.88;;;8.93;;
19521;SDS011;9905;52.126;5.596;2022-09-13T00:18:43;9.00;;;8.40;;
19521;SDS011;9905;52.126;5.596;2022-09-13T00:21:11;9.77;;;9.05;;
19521;SDS011;9905;52.126;5.596;2022-09-13T00:23:39;10.15;;;9.23;;
19521;SDS011;9905;52.126;5.596;2022-09-13T00:26:10;8.93;;;8.32;;
19521;SDS011;9905;52.126;5.596;2022-09-13T00:28:38;9.50;;;8.80;;
19521;SDS011;9905;52.126;5.596;2022-09-13T00:31:06;9.05;;;8.20;;
19521;SDS011;9905;52.126;5.596;2022-09-13T00:33:34;9.40;;;8.50;;
19521;SDS011;9905;52.126;5.596;2022-09-13T00:36:04;9.38;;;8.60;;
19521;SDS011;9905;52.126;5.596;2022-09-13T00:38:33;9.43;;;8.73;;
19521;SDS011;9905;52.126;5.596;2022-09-13T00:41:00;10.40;;;9.63;;
19521;SDS011;9905;52.126;5.596;2022-09-13T00:43:40;9.77;;;8.95;;
19521;SDS011;9905;52.126;5.596;2022-09-13T00:46:10;9.45;;;8.57;;
19521;SDS011;9905;52.126;5.596;2022-09-13T00:48:40;8.98;;;8.27;;
19521;SDS011;9905;52.126;5.596;2022-09-13T00:51:08;9.57;;;8.68;;
19521;SDS011;9905;52.126;5.596;2022-09-13T00:53:37;9.70;;;8.90;;
19521;SDS011;9905;52.126;5.596;2022-09-13T00:56:07;8.70;;;8.10;;
19521;SDS011;9905;52.126;5.596;2022-09-13T00:58:38;10.27;;;9.25;;
19521;SDS011;9905;52.126;5.596;2022-09-13T01:01:09;8.77;;;8.02;;
19521;SDS011;9905;52.126;5.596;2022-09-13T01:03:38;8.45;;;7.75;;
19521;SDS011;9905;52.126;5.596;2022-09-13T01:06:06;9.13;;;8.52;;
19521;SDS011;9905;52.126;5.596;2022-09-13T01:08:38;9.63;;;8.82;;
19521;SDS011;9905;52.126;5.596;2022-09-13T01:11:07;9.82;;;9.02;;
19521;SDS011;9905;52.126;5.596;2022-09-13T01:13:37;9.63;;;8.82;;
19521;SDS011;9905;52.126;5.596;2022-09-13T01:16:05;9.15;;;8.35;;
19521;SDS011;9905;52.126;5.596;2022-09-13T01:18:32;9.27;;;8.57;;
19521;SDS011;9905;52.126;5.596;2022-09-13T01:21:21;10.00;;;9.18;;
19521;SDS011;9905;52.126;5.596;2022-09-13T01:24:19;9.57;;;8.77;;
19521;SDS011;9905;52.126;5.596;2022-09-13T01:27:04;9.55;;;8.85;;
19521;SDS011;9905;52.126;5.596;2022-09-13T01:30:09;9.98;;;9.07;;
19521;SDS011;9905;52.126;5.596;2022-09-13T01:32:54;9.05;;;8.45;;
19521;SDS011;9905;52.126;5.596;2022-09-13T01:35:42;8.77;;;8.07;;
19521;SDS011;9905;52.126;5.596;2022-09-13T01:38:26;9.75;;;8.95;;
19521;SDS011;9905;52.126;5.596;2022-09-13T01:41:14;9.82;;;9.02;;
19521;SDS011;9905;52.126;5.596;2022-09-13T01:43:55;10.60;;;9.70;;
19521;SDS011;9905;52.126;5.596;2022-09-13T01:46:27;10.70;;;9.68;;
19521;SDS011;9905;52.126;5.596;2022-09-13T01:48:58;9.88;;;8.57;;
19521;SDS011;9905;52.126;5.596;2022-09-13T01:51:30;10.43;;;9.52;;
19521;SDS011;9905;52.126;5.596;2022-09-13T01:54:06;10.43;;;9.43;;
19521;SDS011;9905;52.126;5.596;2022-09-13T01:56:39;10.45;;;9.48;;
19521;SDS011;9905;52.126;5.596;2022-09-13T01:59:13;10.15;;;9.25;;
19521;SDS011;9905;52.126;5.596;2022-09-13T02:01:46;10.13;;;9.27;;
19521;SDS011;9905;52.126;5.596;2022-09-13T02:04:20;11.15;;;10.15;;
19521;SDS011;9905;52.126;5.596;2022-09-13T02:06:50;11.27;;;10.15;;
19521;SDS011;9905;52.126;5.596;2022-09-13T02:09:23;11.77;;;10.57;;
19521;SDS011;9905;52.126;5.596;2022-09-13T02:11:53;10.80;;;9.70;;
19521;SDS011;9905;52.126;5.596;2022-09-13T02:14:26;10.50;;;9.60;;
19521;SDS011;9905;52.126;5.596;2022-09-13T02:17:00;11.15;;;10.02;;
19521;SDS011;9905;52.126;5.596;2022-09-13T02:19:32;10.27;;;9.38;;
19521;SDS011;9905;52.126;5.596;2022-09-13T02:22:01;10.48;;;9.68;;
19521;SDS011;9905;52.126;5.596;2022-09-13T02:24:32;11.20;;;10.07;;
19521;SDS011;9905;52.126;5.596;2022-09-13T02:27:01;11.20;;;10.13;;
19521;SDS011;9905;52.126;5.596;2022-09-13T02:29:32;10.02;;;9.23;;
19521;SDS011;9905;52.126;5.596;2022-09-13T02:32:04;10.07;;;9.27;;
19521;SDS011;9905;52.126;5.596;2022-09-13T02:34:35;10.20;;;9.20;;
19521;SDS011;9905;52.126;5.596;2022-09-13T02:37:05;11.05;;;10.07;;
19521;SDS011;9905;52.126;5.596;2022-09-13T02:39:34;10.38;;;9.48;;
19521;SDS011;9905;52.126;5.596;2022-09-13T02:42:07;10.40;;;9.60;;
19521;SDS011;9905;52.126;5.596;2022-09-13T02:44:39;11.32;;;10.38;;
19521;SDS011;9905;52.126;5.596;2022-09-13T02:47:13;10.80;;;9.80;;
19521;SDS011;9905;52.126;5.596;2022-09-13T02:49:51;10.35;;;9.45;;
19521;SDS011;9905;52.126;5.596;2022-09-13T02:52:25;10.32;;;9.50;;
19521;SDS011;9905;52.126;5.596;2022-09-13T02:55:02;10.68;;;9.77;;
19521;SDS011;9905;52.126;5.596;2022-09-13T02:57:41;11.10;;;10.02;;
19521;SDS011;9905;52.126;5.596;2022-09-13T03:00:17;10.93;;;9.93;;
19521;SDS011;9905;52.126;5.596;2022-09-13T03:02:45;9.93;;;9.10;;
19521;SDS011;9905;52.126;5.596;2022-09-13T03:05:14;10.75;;;9.80;;
19521;SDS011;9905;52.126;5.596;2022-09-13T03:07:41;11.13;;;9.93;;
19521;SDS011;9905;52.126;5.596;2022-09-13T03:10:08;11.32;;;10.13;;
19521;SDS011;9905;52.126;5.596;2022-09-13T03:12:43;11.52;;;10.25;;
19521;SDS011;9905;52.126;5.596;2022-09-13T03:15:23;11.75;;;10.55;;
19521;SDS011;9905;52.126;5.596;2022-09-13T03:18:02;11.70;;;10.60;;
19521;SDS011;9905;52.126;5.596;2022-09-13T03:20:40;10.27;;;9.45;;
19521;SDS011;9905;52.126;5.596;2022-09-13T03:23:16;10.80;;;9.80;;
19521;SDS011;9905;52.126;5.596;2022-09-13T03:28:48;10.30;;;9.40;;
19521;SDS011;9905;52.126;5.596;2022-09-13T03:31:26;12.45;;;9.98;;
19521;SDS011;9905;52.126;5.596;2022-09-13T03:34:02;12.07;;;10.98;;
19521;SDS011;9905;52.126;5.596;2022-09-13T03:36:34;11.63;;;10.52;;
19521;SDS011;9905;52.126;5.596;2022-09-13T03:39:06;11.82;;;10.77;;
19521;SDS011;9905;52.126;5.596;2022-09-13T03:41:38;12.27;;;11.07;;
19521;SDS011;9905;52.126;5.596;2022-09-13T03:44:09;11.57;;;10.48;;
19521;SDS011;9905;52.126;5.596;2022-09-13T03:46:39;12.45;;;11.30;;
19521;SDS011;9905;52.126;5.596;2022-09-13T03:49:10;11.85;;;10.40;;
19521;SDS011;9905;52.126;5.596;2022-09-13T03:51:39;11.85;;;10.68;;
19521;SDS011;9905;52.126;5.596;2022-09-13T03:54:07;13.43;;;12.15;;
19521;SDS011;9905;52.126;5.596;2022-09-13T03:56:37;13.40;;;11.90;;
19521;SDS011;9905;52.126;5.596;2022-09-13T03:59:03;13.13;;;11.75;;
19521;SDS011;9905;52.126;5.596;2022-09-13T04:01:30;13.43;;;12.13;;
19521;SDS011;9905;52.126;5.596;2022-09-13T04:03:57;12.80;;;11.45;;
19521;SDS011;9905;52.126;5.596;2022-09-13T04:06:25;13.73;;;11.48;;
19521;SDS011;9905;52.126;5.596;2022-09-13T04:08:52;13.02;;;11.75;;
19521;SDS011;9905;52.126;5.596;2022-09-13T04:11:19;13.13;;;11.82;;
19521;SDS011;9905;52.126;5.596;2022-09-13T04:13:46;12.93;;;11.63;;
19521;SDS011;9905;52.126;5.596;2022-09-13T04:16:12;14.10;;;12.60;;
19521;SDS011;9905;52.126;5.596;2022-09-13T04:18:39;12.32;;;11.23;;
19521;SDS011;9905;52.126;5.596;2022-09-13T04:21:07;12.00;;;10.82;;
19521;SDS011;9905;52.126;5.596;2022-09-13T04:23:35;12.50;;;11.20;;
19521;SDS011;9905;52.126;5.596;2022-09-13T04:26:02;12.30;;;11.10;;
19521;SDS011;9905;52.126;5.596;2022-09-13T04:28:30;13.00;;;11.82;;
19521;SDS011;9905;52.126;5.596;2022-09-13T04:30:56;12.38;;;11.27;;
19521;SDS011;9905;52.126;5.596;2022-09-13T04:33:23;12.55;;;11.25;;
19521;SDS011;9905;52.126;5.596;2022-09-13T04:35:53;14.48;;;11.88;;
19521;SDS011;9905;52.126;5.596;2022-09-13T04:38:23;13.00;;;11.60;;
19521;SDS011;9905;52.126;5.596;2022-09-13T04:40:54;12.60;;;11.50;;
19521;SDS011;9905;52.126;5.596;2022-09-13T04:43:21;13.60;;;12.20;;
19521;SDS011;9905;52.126;5.596;2022-09-13T04:45:49;15.52;;;11.70;;
19521;SDS011;9905;52.126;5.596;2022-09-13T04:48:15;13.27;;;11.13;;
19521;SDS011;9905;52.126;5.596;2022-09-13T04:50:42;11.95;;;10.68;;
19521;SDS011;9905;52.126;5.596;2022-09-13T04:53:09;14.77;;;12.30;;
19521;SDS011;9905;52.126;5.596;2022-09-13T04:55:36;12.65;;;11.40;;
19521;SDS011;9905;52.126;5.596;2022-09-13T04:58:04;13.80;;;12.40;;
19521;SDS011;9905;52.126;5.596;2022-09-13T05:00:31;13.60;;;12.20;;
19521;SDS011;9905;52.126;5.596;2022-09-13T05:02:59;14.18;;;12.68;;
19521;SDS011;9905;52.126;5.596;2022-09-13T05:05:26;13.85;;;12.57;;
19521;SDS011;9905;52.126;5.596;2022-09-13T05:07:55;14.30;;;12.90;;
19521;SDS011;9905;52.126;5.596;2022-09-13T05:10:21;13.52;;;12.15;;
19521;SDS011;9905;52.126;5.596;2022-09-13T05:12:48;15.07;;;12.85;;
19521;SDS011;9905;52.126;5.596;2022-09-13T05:15:16;14.20;;;12.70;;
19521;SDS011;9905;52.126;5.596;2022-09-13T05:17:43;13.05;;;11.75;;
19521;SDS011;9905;52.126;5.596;2022-09-13T05:20:09;14.00;;;12.70;;
19521;SDS011;9905;52.126;5.596;2022-09-13T05:22:36;13.88;;;12.45;;
19521;SDS011;9905;52.126;5.596;2022-09-13T05:25:03;14.88;;;13.35;;
19521;SDS011;9905;52.126;5.596;2022-09-13T05:27:31;16.45;;;13.10;;
19521;SDS011;9905;52.126;5.596;2022-09-13T05:29:57;14.02;;;12.60;;
19521;SDS011;9905;52.126;5.596;2022-09-13T05:32:25;14.30;;;12.90;;
19521;SDS011;9905;52.126;5.596;2022-09-13T05:34:52;15.70;;;12.57;;
19521;SDS011;9905;52.126;5.596;2022-09-13T05:37:19;13.15;;;11.77;;
19521;SDS011;9905;52.126;5.596;2022-09-13T05:39:46;12.55;;;11.35;;
19521;SDS011;9905;52.126;5.596;2022-09-13T05:42:12;15.82;;;13.60;;
19521;SDS011;9905;52.126;5.596;2022-09-13T05:44:39;14.63;;;12.80;;
19521;SDS011;9905;52.126;5.596;2022-09-13T05:47:06;15.85;;;13.63;;
19521;SDS011;9905;52.126;5.596;2022-09-13T05:49:34;15.88;;;13.25;;
19521;SDS011;9905;52.126;5.596;2022-09-13T05:52:01;15.55;;;13.90;;
19521;SDS011;9905;52.126;5.596;2022-09-13T05:54:27;14.73;;;13.15;;
19521;SDS011;9905;52.126;5.596;2022-09-13T05:56:55;17.90;;;14.10;;
19521;SDS011;9905;52.126;5.596;2022-09-13T05:59:22;16.75;;;13.52;;
19521;SDS011;9905;52.126;5.596;2022-09-13T06:01:49;15.35;;;13.00;;
19521;SDS011;9905;52.126;5.596;2022-09-13T06:04:15;18.15;;;14.60;;
19521;SDS011;9905;52.126;5.596;2022-09-13T06:06:44;17.55;;;13.93;;
19521;SDS011;9905;52.126;5.596;2022-09-13T06:09:10;15.88;;;13.50;;
19521;SDS011;9905;52.126;5.596;2022-09-13T06:11:37;17.05;;;13.73;;
19521;SDS011;9905;52.126;5.596;2022-09-13T06:14:04;16.60;;;12.80;;
19521;SDS011;9905;52.126;5.596;2022-09-13T06:16:31;19.10;;;14.77;;
19521;SDS011;9905;52.126;5.596;2022-09-13T06:18:58;17.98;;;13.30;;
19521;SDS011;9905;52.126;5.596;2022-09-13T06:21:25;20.98;;;14.43;;
19521;SDS011;9905;52.126;5.596;2022-09-13T06:23:53;21.65;;;14.65;;
19521;SDS011;9905;52.126;5.596;2022-09-13T06:26:20;19.17;;;14.23;;
19521;SDS011;9905;52.126;5.596;2022-09-13T06:28:48;18.13;;;14.00;;
19521;SDS011;9905;52.126;5.596;2022-09-13T06:31:17;14.43;;;12.85;;
19521;SDS011;9905;52.126;5.596;2022-09-13T06:33:45;18.38;;;13.50;;
19521;SDS011;9905;52.126;5.596;2022-09-13T06:36:12;18.92;;;14.02;;
19521;SDS011;9905;52.126;5.596;2022-09-13T06:38:42;17.75;;;13.65;;
19521;SDS011;9905;52.126;5.596;2022-09-13T06:41:11;20.23;;;14.38;;
19521;SDS011;9905;52.126;5.596;2022-09-13T06:43:39;17.45;;;14.43;;
19521;SDS011;9905;52.126;5.596;2022-09-13T06:46:07;19.58;;;14.80;;
19521;SDS011;9905;52.126;5.596;2022-09-13T06:48:36;16.67;;;13.70;;
19521;SDS011;9905;52.126;5.596;2022-09-13T06:51:07;16.98;;;14.27;;
19521;SDS011;9905;52.126;5.596;2022-09-13T06:53:35;18.38;;;14.38;;
19521;SDS011;9905;52.126;5.596;2022-09-13T06:56:03;18.38;;;13.43;;
19521;SDS011;9905;52.126;5.596;2022-09-13T06:58:33;16.67;;;13.98;;
19521;SDS011;9905;52.126;5.596;2022-09-13T07:01:05;16.23;;;13.15;;
19521;SDS011;9905;52.126;5.596;2022-09-13T07:03:34;16.15;;;13.23;;
19521;SDS011;9905;52.126;5.596;2022-09-13T07:06:05;17.48;;;13.55;;
19521;SDS011;9905;52.126;5.596;2022-09-13T07:08:35;20.85;;;14.65;;
19521;SDS011;9905;52.126;5.596;2022-09-13T07:11:02;22.80;;;14.15;;
19521;SDS011;9905;52.126;5.596;2022-09-13T07:13:29;20.63;;;15.13;;
19521;SDS011;9905;52.126;5.596;2022-09-13T07:15:57;21.23;;;15.63;;
19521;SDS011;9905;52.126;5.596;2022-09-13T07:18:26;21.85;;;15.27;;
19521;SDS011;9905;52.126;5.596;2022-09-13T07:20:57;24.17;;;17.27;;
19521;SDS011;9905;52.126;5.596;2022-09-13T07:23:25;24.00;;;16.23;;
19521;SDS011;9905;52.126;5.596;2022-09-13T07:25:54;18.30;;;14.93;;
19521;SDS011;9905;52.126;5.596;2022-09-13T07:28:26;21.05;;;15.15;;
19521;SDS011;9905;52.126;5.596;2022-09-13T07:30:53;19.50;;;15.02;;
19521;SDS011;9905;52.126;5.596;2022-09-13T07:33:21;20.02;;;15.55;;
19521;SDS011;9905;52.126;5.596;2022-09-13T07:35:53;20.30;;;14.88;;
19521;SDS011;9905;52.126;5.596;2022-09-13T07:38:20;17.08;;;14.00;;
19521;SDS011;9905;52.126;5.596;2022-09-13T07:40:51;20.55;;;15.55;;
19521;SDS011;9905;52.126;5.596;2022-09-13T07:43:19;17.90;;;13.90;;
19521;SDS011;9905;52.126;5.596;2022-09-13T07:45:45;19.88;;;15.20;;
19521;SDS011;9905;52.126;5.596;2022-09-13T07:48:12;18.52;;;14.85;;
19521;SDS011;9905;52.126;5.596;2022-09-13T07:50:40;18.30;;;15.10;;
19521;SDS011;9905;52.126;5.596;2022-09-13T07:53:07;17.83;;;14.85;;
19521;SDS011;9905;52.126;5.596;2022-09-13T07:55:33;19.30;;;15.20;;
19521;SDS011;9905;52.126;5.596;2022-09-13T07:58:00;17.17;;;12.90;;
19521;SDS011;9905;52.126;5.596;2022-09-13T08:00:26;17.70;;;14.00;;
19521;SDS011;9905;52.126;5.596;2022-09-13T08:02:53;14.80;;;13.00;;
19521;SDS011;9905;52.126;5.596;2022-09-13T08:05:20;13.05;;;11.68;;
19521;SDS011;9905;52.126;5.596;2022-09-13T08:07:48;13.32;;;11.93;;
19521;SDS011;9905;52.126;5.596;2022-09-13T08:10:15;13.20;;;11.95;;
19521;SDS011;9905;52.126;5.596;2022-09-13T08:12:41;13.25;;;11.43;;
19521;SDS011;9905;52.126;5.596;2022-09-13T08:15:08;11.68;;;10.57;;
19521;SDS011;9905;52.126;5.596;2022-09-13T08:17:35;10.27;;;9.27;;
19521;SDS011;9905;52.126;5.596;2022-09-13T08:20:02;10.45;;;9.20;;
19521;SDS011;9905;52.126;5.596;2022-09-13T08:22:29;9.73;;;8.82;;
19521;SDS011;9905;52.126;5.596;2022-09-13T08:24:57;9.13;;;8.25;;
19521;SDS011;9905;52.126;5.596;2022-09-13T08:27:24;9.52;;;8.73;;
19521;SDS011;9905;52.126;5.596;2022-09-13T08:29:51;9.55;;;8.48;;
19521;SDS011;9905;52.126;5.596;2022-09-13T08:32:17;8.50;;;7.93;;
19521;SDS011;9905;52.126;5.596;2022-09-13T08:34:44;8.77;;;8.07;;
19521;SDS011;9905;52.126;5.596;2022-09-13T08:37:11;8.25;;;7.70;;
19521;SDS011;9905;52.126;5.596;2022-09-13T08:39:37;8.75;;;8.15;;
19521;SDS011;9905;52.126;5.596;2022-09-13T08:42:15;8.88;;;7.60;;
19521;SDS011;9905;52.126;5.596;2022-09-13T08:44:48;8.15;;;7.40;;
19521;SDS011;9905;52.126;5.596;2022-09-13T08:47:23;7.93;;;7.35;;
19521;SDS011;9905;52.126;5.596;2022-09-13T08:49:58;8.30;;;7.60;;
19521;SDS011;9905;52.126;5.596;2022-09-13T08:52:32;7.47;;;6.88;;
19521;SDS011;9905;52.126;5.596;2022-09-13T08:55:01;7.72;;;7.13;;
19521;SDS011;9905;52.126;5.596;2022-09-13T08:57:35;7.68;;;6.78;;
19521;SDS011;9905;52.126;5.596;2022-09-13T09:00:09;7.90;;;6.78;;
19521;SDS011;9905;52.126;5.596;2022-09-13T09:02:47;5.80;;;5.40;;
19521;SDS011;9905;52.126;5.596;2022-09-13T09:05:35;5.32;;;5.03;;
19521;SDS011;9905;52.126;5.596;2022-09-13T09:08:12;5.47;;;5.07;;
19521;SDS011;9905;52.126;5.596;2022-09-13T09:10:44;4.65;;;4.25;;
19521;SDS011;9905;52.126;5.596;2022-09-13T09:13:16;4.07;;;3.88;;
19521;SDS011;9905;52.126;5.596;2022-09-13T09:15:49;4.70;;;4.22;;
19521;SDS011;9905;52.126;5.596;2022-09-13T09:18:19;4.80;;;4.40;;
19521;SDS011;9905;52.126;5.596;2022-09-13T09:20:49;3.55;;;3.40;;
19521;SDS011;9905;52.126;5.596;2022-09-13T09:23:18;3.47;;;3.28;;
19521;SDS011;9905;52.126;5.596;2022-09-13T09:25:46;3.65;;;3.35;;
19521;SDS011;9905;52.126;5.596;2022-09-13T09:28:17;3.38;;;3.17;;
19521;SDS011;9905;52.126;5.596;2022-09-13T09:30:45;2.70;;;2.58;;
19521;SDS011;9905;52.126;5.596;2022-09-13T09:33:26;3.17;;;2.97;;
19521;SDS011;9905;52.126;5.596;2022-09-13T09:36:06;2.85;;;2.75;;
19521;SDS011;9905;52.126;5.596;2022-09-13T09:38:43;2.80;;;2.70;;
19521;SDS011;9905;52.126;5.596;2022-09-13T09:41:14;2.47;;;2.38;;
19521;SDS011;9905;52.126;5.596;2022-09-13T09:43:54;2.75;;;2.65;;
19521;SDS011;9905;52.126;5.596;2022-09-13T09:46:27;2.80;;;2.70;;
19521;SDS011;9905;52.126;5.596;2022-09-13T09:49:00;2.60;;;2.50;;
19521;SDS011;9905;52.126;5.596;2022-09-13T09:51:50;2.33;;;2.22;;
19521;SDS011;9905;52.126;5.596;2022-09-13T09:54:20;2.55;;;2.45;;
19521;SDS011;9905;52.126;5.596;2022-09-13T09:56:51;3.25;;;2.95;;
19521;SDS011;9905;52.126;5.596;2022-09-13T09:59:25;3.10;;;2.90;;
19521;SDS011;9905;52.126;5.596;2022-09-13T10:01:55;2.72;;;2.30;;
19521;SDS011;9905;52.126;5.596;2022-09-13T10:04:22;2.22;;;2.13;;
19521;SDS011;9905;52.126;5.596;2022-09-13T10:06:49;2.90;;;2.40;;
19521;SDS011;9905;52.126;5.596;2022-09-13T10:09:35;2.30;;;2.20;;
19521;SDS011;9905;52.126;5.596;2022-09-13T10:12:03;2.45;;;2.30;;
19521;SDS011;9905;52.126;5.596;2022-09-13T10:14:36;1.95;;;1.95;;
19521;SDS011;9905;52.126;5.596;2022-09-13T10:17:16;3.25;;;2.03;;
19521;SDS011;9905;52.126;5.596;2022-09-13T10:22:45;2.00;;;1.90;;
19521;SDS011;9905;52.126;5.596;2022-09-13T10:25:37;1.83;;;1.83;;
19521;SDS011;9905;52.126;5.596;2022-09-13T10:28:05;2.17;;;2.08;;
19521;SDS011;9905;52.126;5.596;2022-09-13T10:30:40;1.90;;;1.80;;
19521;SDS011;9905;52.126;5.596;2022-09-13T10:33:15;1.83;;;1.80;;
19521;SDS011;9905;52.126;5.596;2022-09-13T10:35:49;2.00;;;2.00;;
19521;SDS011;9905;52.126;5.596;2022-09-13T10:38:22;1.90;;;1.90;;
19521;SDS011;9905;52.126;5.596;2022-09-13T10:40:53;2.05;;;1.95;;
19521;SDS011;9905;52.126;5.596;2022-09-13T10:43:20;1.80;;;1.70;;
19521;SDS011;9905;52.126;5.596;2022-09-13T10:45:49;1.65;;;1.55;;
19521;SDS011;9905;52.126;5.596;2022-09-13T10:48:17;1.80;;;1.70;;
19521;SDS011;9905;52.126;5.596;2022-09-13T10:50:58;1.90;;;1.90;;
19521;SDS011;9905;52.126;5.596;2022-09-13T10:53:36;2.22;;;2.08;;
19521;SDS011;9905;52.126;5.596;2022-09-13T10:56:03;1.95;;;1.85;;
19521;SDS011;9905;52.126;5.596;2022-09-13T10:58:43;2.00;;;1.90;;
19521;SDS011;9905;52.126;5.596;2022-09-13T11:01:25;2.10;;;2.00;;
19521;SDS011;9905;52.126;5.596;2022-09-13T11:04:19;4.03;;;2.13;;
19521;SDS011;9905;52.126;5.596;2022-09-13T11:07:19;2.70;;;2.60;;
19521;SDS011;9905;52.126;5.596;2022-09-13T11:10:15;1.92;;;1.92;;
19521;SDS011;9905;52.126;5.596;2022-09-13T11:12:49;2.20;;;2.10;;
19521;SDS011;9905;52.126;5.596;2022-09-13T11:15:31;1.90;;;1.80;;
19521;SDS011;9905;52.126;5.596;2022-09-13T11:18:20;2.08;;;1.98;;
19521;SDS011;9905;52.126;5.596;2022-09-13T11:21:06;2.17;;;1.70;;
19521;SDS011;9905;52.126;5.596;2022-09-13T11:23:55;3.30;;;2.08;;
19521;SDS011;9905;52.126;5.596;2022-09-13T11:26:43;1.80;;;1.70;;
19521;SDS011;9905;52.126;5.596;2022-09-13T11:32:14;2.03;;;1.80;;
19521;SDS011;9905;52.126;5.596;2022-09-13T11:34:55;1.50;;;1.40;;
19521;SDS011;9905;52.126;5.596;2022-09-13T11:37:39;2.33;;;1.63;;
19521;SDS011;9905;52.126;5.596;2022-09-13T11:40:24;1.60;;;1.60;;
19521;SDS011;9905;52.126;5.596;2022-09-13T11:43:01;1.48;;;1.38;;
19521;SDS011;9905;52.126;5.596;2022-09-13T11:45:36;1.60;;;1.50;;
19521;SDS011;9905;52.126;5.596;2022-09-13T11:48:22;1.33;;;1.33;;
19521;SDS011;9905;52.126;5.596;2022-09-13T11:51:03;1.50;;;1.50;;
19521;SDS011;9905;52.126;5.596;2022-09-13T11:56:32;2.70;;;1.65;;
19521;SDS011;9905;52.126;5.596;2022-09-13T11:59:08;1.60;;;1.52;;
19521;SDS011;9905;52.126;5.596;2022-09-13T12:01:43;1.95;;;1.70;;
19521;SDS011;9905;52.126;5.596;2022-09-13T12:04:15;1.67;;;1.58;;
19521;SDS011;9905;52.126;5.596;2022-09-13T12:06:47;2.25;;;1.60;;
19521;SDS011;9905;52.126;5.596;2022-09-13T12:09:19;1.50;;;1.40;;
19521;SDS011;9905;52.126;5.596;2022-09-13T12:11:51;1.58;;;1.48;;
19521;SDS011;9905;52.126;5.596;2022-09-13T12:14:22;1.70;;;1.65;;
19521;SDS011;9905;52.126;5.596;2022-09-13T12:16:54;1.40;;;1.40;;
19521;SDS011;9905;52.126;5.596;2022-09-13T12:19:28;1.23;;;1.20;;
19521;SDS011;9905;52.126;5.596;2022-09-13T12:22:05;1.20;;;1.20;;
19521;SDS011;9905;52.126;5.596;2022-09-13T12:24:36;2.08;;;1.35;;
19521;SDS011;9905;52.126;5.596;2022-09-13T12:27:08;1.65;;;1.33;;
19521;SDS011;9905;52.126;5.596;2022-09-13T12:29:43;2.45;;;1.50;;
19521;SDS011;9905;52.126;5.596;2022-09-13T12:32:15;2.25;;;1.20;;
19521;SDS011;9905;52.126;5.596;2022-09-13T12:34:45;1.38;;;1.27;;
19521;SDS011;9905;52.126;5.596;2022-09-13T12:37:19;1.30;;;1.20;;
19521;SDS011;9905;52.126;5.596;2022-09-13T12:40:08;1.13;;;1.13;;
19521;SDS011;9905;52.126;5.596;2022-09-13T12:42:54;1.15;;;1.15;;
19521;SDS011;9905;52.126;5.596;2022-09-13T12:45:43;1.00;;;1.00;;
19521;SDS011;9905;52.126;5.596;2022-09-13T12:48:29;1.23;;;1.20;;
19521;SDS011;9905;52.126;5.596;2022-09-13T12:51:07;1.20;;;1.13;;
19521;SDS011;9905;52.126;5.596;2022-09-13T12:53:58;1.30;;;1.20;;
19521;SDS011;9905;52.126;5.596;2022-09-13T12:59:50;2.67;;;1.30;;
19521;SDS011;9905;52.126;5.596;2022-09-13T13:02:37;1.30;;;0.80;;
19521;SDS011;9905;52.126;5.596;2022-09-13T13:05:14;1.10;;;1.00;;
19521;SDS011;9905;52.126;5.596;2022-09-13T13:07:50;2.47;;;1.02;;
19521;SDS011;9905;52.126;5.596;2022-09-13T13:10:25;1.00;;;1.00;;
19521;SDS011;9905;52.126;5.596;2022-09-13T13:12:55;1.17;;;0.90;;
19521;SDS011;9905;52.126;5.596;2022-09-13T13:15:54;1.08;;;1.00;;
19521;SDS011;9905;52.126;5.596;2022-09-13T13:18:30;1.08;;;1.08;;
19521;SDS011;9905;52.126;5.596;2022-09-13T13:27:01;0.90;;;0.90;;
19521;SDS011;9905;52.126;5.596;2022-09-13T13:33:21;1.20;;;1.20;;
19521;SDS011;9905;52.126;5.596;2022-09-13T13:35:52;0.95;;;0.95;;
19521;SDS011;9905;52.126;5.596;2022-09-13T13:38:31;0.98;;;0.98;;
19521;SDS011;9905;52.126;5.596;2022-09-13T13:47:51;0.80;;;0.80;;
19521;SDS011;9905;52.126;5.596;2022-09-13T13:50:21;0.80;;;0.80;;
19521;SDS011;9905;52.126;5.596;2022-09-13T13:52:53;1.27;;;1.00;;
19521;SDS011;9905;52.126;5.596;2022-09-13T13:55:39;0.80;;;0.80;;
19521;SDS011;9905;52.126;5.596;2022-09-13T13:58:14;1.00;;;1.00;;
19521;SDS011;9905;52.126;5.596;2022-09-13T14:01:02;0.90;;;0.90;;
19521;SDS011;9905;52.126;5.596;2022-09-13T14:03:35;1.00;;;1.00;;
19521;SDS011;9905;52.126;5.596;2022-09-13T14:06:17;2.28;;;0.95;;
19521;SDS011;9905;52.126;5.596;2022-09-13T14:08:56;1.00;;;0.98;;
19521;SDS011;9905;52.126;5.596;2022-09-13T14:11:36;0.90;;;0.90;;
19521;SDS011;9905;52.126;5.596;2022-09-13T14:14:19;0.93;;;0.88;;
19521;SDS011;9905;52.126;5.596;2022-09-13T14:16:57;1.15;;;1.10;;
19521;SDS011;9905;52.126;5.596;2022-09-13T14:19:47;0.82;;;0.82;;
19521;SDS011;9905;52.126;5.596;2022-09-13T14:22:19;1.77;;;1.35;;
19521;SDS011;9905;52.126;5.596;2022-09-13T14:24:49;0.95;;;0.95;;
19521;SDS011;9905;52.126;5.596;2022-09-13T14:27:18;0.88;;;0.88;;
19521;SDS011;9905;52.126;5.596;2022-09-13T14:29:47;1.00;;;1.00;;
19521;SDS011;9905;52.126;5.596;2022-09-13T14:32:17;1.00;;;1.00;;
19521;SDS011;9905;52.126;5.596;2022-09-13T14:34:50;1.35;;;0.95;;
19521;SDS011;9905;52.126;5.596;2022-09-13T14:37:25;1.48;;;1.00;;
19521;SDS011;9905;52.126;5.596;2022-09-13T14:39:56;1.50;;;1.00;;
19521;SDS011;9905;52.126;5.596;2022-09-13T14:42:25;1.83;;;1.02;;
19521;SDS011;9905;52.126;5.596;2022-09-13T14:44:53;0.95;;;0.95;;
19521;SDS011;9905;52.126;5.596;2022-09-13T14:47:22;0.82;;;0.82;;
19521;SDS011;9905;52.126;5.596;2022-09-13T14:49:54;0.90;;;0.90;;
19521;SDS011;9905;52.126;5.596;2022-09-13T14:52:28;1.55;;;0.95;;
19521;SDS011;9905;52.126;5.596;2022-09-13T14:55:00;1.15;;;1.00;;
19521;SDS011;9905;52.126;5.596;2022-09-13T14:57:31;0.80;;;0.80;;
19521;SDS011;9905;52.126;5.596;2022-09-13T15:00:03;1.15;;;0.90;;
19521;SDS011;9905;52.126;5.596;2022-09-13T15:02:35;1.50;;;1.00;;
19521;SDS011;9905;52.126;5.596;2022-09-13T15:05:04;1.10;;;1.10;;
19521;SDS011;9905;52.126;5.596;2022-09-13T15:07:37;0.88;;;0.85;;
19521;SDS011;9905;52.126;5.596;2022-09-13T15:10:08;0.90;;;0.90;;
19521;SDS011;9905;52.126;5.596;2022-09-13T15:12:49;0.85;;;0.85;;
19521;SDS011;9905;52.126;5.596;2022-09-13T15:15:25;1.08;;;1.08;;
19521;SDS011;9905;52.126;5.596;2022-09-13T15:18:03;1.15;;;0.90;;
19521;SDS011;9905;52.126;5.596;2022-09-13T15:20:43;1.35;;;0.95;;
19521;SDS011;9905;52.126;5.596;2022-09-13T15:23:13;1.13;;;1.10;;
19521;SDS011;9905;52.126;5.596;2022-09-13T15:25:46;1.95;;;1.00;;
19521;SDS011;9905;52.126;5.596;2022-09-13T15:28:19;0.93;;;0.77;;
19521;SDS011;9905;52.126;5.596;2022-09-13T15:30:50;1.42;;;0.95;;
19521;SDS011;9905;52.126;5.596;2022-09-13T15:33:21;1.00;;;1.00;;
19521;SDS011;9905;52.126;5.596;2022-09-13T15:35:50;3.03;;;1.00;;
19521;SDS011;9905;52.126;5.596;2022-09-13T15:38:22;1.00;;;1.00;;
19521;SDS011;9905;52.126;5.596;2022-09-13T15:40:58;1.38;;;1.00;;
19521;SDS011;9905;52.126;5.596;2022-09-13T15:43:27;1.17;;;1.00;;
19521;SDS011;9905;52.126;5.596;2022-09-13T15:45:55;0.90;;;0.90;;
19521;SDS011;9905;52.126;5.596;2022-09-13T15:48:24;1.40;;;0.93;;
19521;SDS011;9905;52.126;5.596;2022-09-13T15:51:03;1.23;;;1.02;;
19521;SDS011;9905;52.126;5.596;2022-09-13T15:53:31;0.80;;;0.80;;